createdAt,value
2023-02-22T00:00:35.079Z,40.4
2023-02-22T00:15:35.808Z,40.7
2023-02-22T00:15:41.938Z,40.6
2023-02-22T00:30:44.237Z,40
2023-02-22T00:45:46.028Z,40.3
2023-02-22T01:00:45.979Z,40.5
2023-02-22T01:15:38.245Z,40.5
2023-02-22T01:15:44.320Z,39.8
2023-02-22T02:15:46.145Z,40.9
2023-02-22T02:15:52.261Z,40.7
2023-02-22T04:16:10.912Z,40.1
2023-02-22T04:31:12.791Z,40.7
2023-02-22T04:46:15.340Z,40
2023-02-22T05:01:14.661Z,40.5
2023-02-22T05:16:21.791Z,40.6
2023-02-22T05:31:24.940Z,40.7
2023-02-22T05:46:26.064Z,40.4
2023-02-22T06:01:26.474Z,39.8
2023-02-22T06:16:32.501Z,40.3
2023-02-22T06:31:34.021Z,40.1
2023-02-22T06:46:34.922Z,40.4
2023-02-22T07:01:36.045Z,40.4
2023-02-22T07:16:47.588Z,41.1
2023-02-22T07:16:53.797Z,40.7
2023-02-22T07:46:57.671Z,40.6
2023-02-22T08:01:58.422Z,40.8
2023-02-22T10:17:11.856Z,41.2
2023-02-22T10:32:13.965Z,40.8
2023-02-22T10:47:17.912Z,41.3
2023-02-22T11:17:21.593Z,40.8
2023-02-22T11:32:24.871Z,41.5
2023-02-22T11:47:25.509Z,41.8
2023-02-22T12:02:26.315Z,41.1
2023-02-22T12:17:32.323Z,41.3
2023-02-22T12:32:34.906Z,41.7
2023-02-22T13:17:39.689Z,6.5
2023-02-22T13:17:45.671Z,6.4
2023-02-22T13:32:48.478Z,6.6
2023-02-22T13:47:49.706Z,6.5
2023-02-22T14:17:47.856Z,6.4
2023-02-22T14:17:53.820Z,6.4
2023-02-22T14:32:57.175Z,6.2
2023-02-22T14:47:57.227Z,6.3
2023-02-22T15:02:58.628Z,6.3
2023-02-22T15:17:59.647Z,6.1
2023-02-22T15:18:05.707Z,6.6
2023-02-22T15:33:08.050Z,6
2023-02-22T15:48:08.199Z,6.4
2023-02-22T16:03:09.551Z,6
2023-02-22T16:18:12.556Z,6.3
2023-02-22T16:33:14.848Z,6.5
2023-02-22T16:48:15.142Z,6.4
2023-02-22T17:03:16.901Z,6.5
2023-02-22T17:18:26.242Z,6.1
2023-02-22T17:33:28.029Z,6.5
2023-02-22T17:48:29.844Z,6.4
2023-02-22T18:18:34.369Z,5.8
2023-02-22T18:33:36.177Z,6.3
2023-02-22T18:48:37.213Z,6.3
2023-02-22T19:03:38.688Z,5.9
2023-02-22T19:18:45.937Z,5.9
2023-02-22T19:33:48.914Z,6
2023-02-22T19:48:49.580Z,6.2
2023-02-22T20:03:51.184Z,6.1
2023-02-22T20:19:07.217Z,6.5
2023-02-22T20:34:09.316Z,6.3
2023-02-22T20:49:10.560Z,6.2
2023-02-22T21:04:11.335Z,6.3
2023-02-22T21:19:09.415Z,6.2
2023-02-22T21:19:15.373Z,6.3
2023-02-22T23:19:25.063Z,6.2
